To NAV CANADA Home Page Login to a new session Search on AWWS site Feedback and Comments Disclaimer Vers la page française équivalente Tips FAQ What's new on the site To the Forecasts and Observations / NOTAM section To "File a Flight Plan" website Publications and other links Update of the User's profile FIC Telephone Numbers My Weather Data Folder Route Weather Data Regional Weather Data Local Weather Data To the Forecasts and Observations / NOTAM section
Request Generated 05/30/2016 at 06:44:50 UTC . Weather information available at that time is displayed.

METAR/TAF

LA GRANDE-4/QC    (show WxCam)

SPECI CYAH 300642Z AUTO 11006KT 9SM OVC075 12/09 A2970 RMK SLP064
DENSITY ALT 1100FT=
SPECI CYAH 300630Z AUTO 11006KT 9SM -RA OVC075 12/09 A2971 RMK SLP067
DENSITY ALT 1100FT=
METAR CYAH 300600Z AUTO 09004KT 9SM OVC075 12/08 A2972 RMK SLP072
DENSITY ALT 1100FT=
SPECI CYAH 300533Z AUTO 08003KT 9SM OVC075 12/09 A2974 RMK SLP080=
SPECI CYAH 300520Z AUTO VRB02KT 9SM -RA OVC075 12/09 A2975 RMK
SLP082=
METAR CYAH 300500Z AUTO VRB02KT 9SM OVC075 12/09 A2976 RMK SLP084=
SPECI CYAH 300429Z AUTO 06002KT 9SM SCT070 OVC082 12/09 A2978 RMK
SLP091=
METAR CYAH 300400Z AUTO 06003KT 9SM -RA BKN065 OVC079 13/08 A2980 RMK
SLP097=

*** REMARK        : Forecast period has ended; this was the last TAF issued
*** REMARQUE : La période de prévision est échue; ceci était le dernier TAF qui a été émis
TAF CYAH 291738Z 2918/2921 VRB03KT P6SM FEW060 BKN240
RMK FCST BASED ON AUTO OBS. NXT FCST WILL BE ISSUED AT 301045Z=
Your time UTC time
Weather data provided by Environment Canada and NAV CANADA